createdAt,value
2023-02-13T00:00:12.706Z,19.50
2023-02-13T00:01:44.165Z,20.27
2023-02-13T00:03:15.554Z,20.22
2023-02-13T00:04:46.984Z,20.21
2023-02-13T00:06:18.326Z,20.83
2023-02-13T00:07:50.080Z,21.32
2023-02-13T00:09:22.467Z,21.91
2023-02-13T00:10:53.814Z,22.37
2023-02-13T00:12:25.336Z,22.14
2023-02-13T00:13:56.772Z,22.48
2023-02-13T00:15:28.105Z,21.85
2023-02-13T00:16:59.557Z,22.14
2023-02-13T00:18:31.247Z,22.50
2023-02-13T00:20:02.834Z,22.55
2023-02-13T00:21:34.502Z,22.34
2023-02-13T00:23:05.884Z,22.74
2023-02-13T00:24:37.297Z,22.66
2023-02-13T00:26:08.548Z,23.16
2023-02-13T00:27:40.487Z,22.27
2023-02-13T00:29:12.013Z,22.77
2023-02-13T00:30:43.538Z,22.23
2023-02-13T00:32:15.129Z,22.53
2023-02-13T00:33:46.809Z,22.49
2023-02-13T00:35:18.258Z,22.69
2023-02-13T00:36:49.620Z,22.28
2023-02-13T00:38:25.982Z,22.34
2023-02-13T00:39:57.396Z,22.33
2023-02-13T00:41:28.802Z,21.98
2023-02-13T00:43:00.385Z,21.26
2023-02-13T00:44:31.837Z,21.73
2023-02-13T00:46:03.236Z,21.38
2023-02-13T00:47:35.137Z,21.36
2023-02-13T00:49:06.644Z,20.89
2023-02-13T00:50:37.936Z,21.45
2023-02-13T00:52:09.604Z,21.27
2023-02-13T00:53:40.920Z,20.64
2023-02-13T00:55:12.746Z,20.58
2023-02-13T00:56:44.414Z,20.23
2023-02-13T00:58:15.715Z,20.41
2023-02-13T00:59:47.330Z,19.85
2023-02-13T01:01:18.720Z,19.22
2023-02-13T01:02:50.120Z,20.24
2023-02-13T01:04:21.458Z,19.85
2023-02-13T01:05:52.826Z,17.95
2023-02-13T01:07:24.445Z,17.79
2023-02-13T01:08:55.931Z,17.95
2023-02-13T01:10:27.345Z,18.33
2023-02-13T01:11:58.715Z,18.58
2023-02-13T01:13:30.074Z,18.73
2023-02-13T01:15:01.527Z,18.76
2023-02-13T01:16:32.890Z,18.99
2023-02-13T01:18:04.276Z,18.12
2023-02-13T01:19:35.568Z,17.24
2023-02-13T01:21:07.281Z,16.73
2023-02-13T01:22:38.686Z,17.49
2023-02-13T01:24:10.030Z,17.43
2023-02-13T01:25:41.453Z,17.11
2023-02-13T01:27:12.854Z,17.41
2023-02-13T01:28:44.152Z,17.24
2023-02-13T01:30:15.457Z,17.91
2023-02-13T01:31:47.028Z,16.24
2023-02-13T01:33:28.493Z,15.49
2023-02-13T01:34:59.864Z,16.03
2023-02-13T01:36:31.387Z,15.45
2023-02-13T01:38:02.901Z,14.84
2023-02-13T01:39:34.359Z,14.77
2023-02-13T01:41:05.867Z,14.66
2023-02-13T01:42:37.219Z,14.09
2023-02-13T01:44:08.633Z,14.26
2023-02-13T01:45:39.899Z,13.82
2023-02-13T01:47:11.704Z,13.42
2023-02-13T01:48:43.062Z,13.14
2023-02-13T01:50:14.406Z,13.47
2023-02-13T01:51:45.968Z,13.09
2023-02-13T01:53:17.284Z,12.18
2023-02-13T01:54:48.740Z,12.70
2023-02-13T01:56:20.093Z,11.66
2023-02-13T01:57:51.366Z,11.53
2023-02-13T01:59:22.690Z,11.49
2023-02-13T02:00:54.215Z,10.52
2023-02-13T02:02:25.700Z,10.22
2023-02-13T02:03:57.188Z,9.48
2023-02-13T02:05:28.439Z,9.26
2023-02-13T02:06:59.726Z,9.87
2023-02-13T02:08:31.204Z,9.80
2023-02-13T02:10:02.617Z,9.18
2023-02-13T02:11:33.971Z,9.06
2023-02-13T02:13:05.364Z,8.82
2023-02-13T02:14:36.836Z,8.23
2023-02-13T02:16:08.108Z,8.03
2023-02-13T02:17:39.417Z,7.30
2023-02-13T02:19:10.953Z,7.13
2023-02-13T02:20:42.336Z,6.79
2023-02-13T02:22:13.633Z,6.34
2023-02-13T02:23:45.250Z,6.33
2023-02-13T02:25:16.632Z,6.15
2023-02-13T02:26:48.253Z,5.95
2023-02-13T02:28:19.909Z,5.56
2023-02-13T02:29:56.404Z,5.46
2023-02-13T02:31:27.779Z,5.55
2023-02-13T02:32:59.241Z,5.38
2023-02-13T02:34:30.622Z,5.54
2023-02-13T02:36:02.151Z,5.42
2023-02-13T02:37:33.678Z,5.34
2023-02-13T02:39:05.077Z,5.67
2023-02-13T02:40:36.519Z,5.93
2023-02-13T02:42:08.484Z,5.59
2023-02-13T02:43:39.729Z,5.50
2023-02-13T02:45:11.151Z,5.56
2023-02-13T02:46:42.536Z,5.68
2023-02-13T02:48:13.858Z,5.74
2023-02-13T02:49:45.542Z,5.13
2023-02-13T02:51:17.061Z,5.13
2023-02-13T02:52:48.352Z,5.36
2023-02-13T02:54:19.738Z,5.26
2023-02-13T02:55:51.044Z,5.23
2023-02-13T02:57:22.453Z,5.40
2023-02-13T02:58:53.866Z,5.61
2023-02-13T03:00:25.491Z,5.64
2023-02-13T03:01:56.823Z,5.70
2023-02-13T03:03:28.426Z,5.35
2023-02-13T03:04:59.742Z,5.66
2023-02-13T03:06:31.383Z,5.76
2023-02-13T03:08:02.707Z,5.89
2023-02-13T03:09:34.097Z,5.91
2023-02-13T03:11:05.480Z,5.93
2023-02-13T03:12:36.756Z,5.93
2023-02-13T03:14:08.007Z,6.02
2023-02-13T03:15:39.459Z,5.76
2023-02-13T03:17:10.739Z,5.82
2023-02-13T03:18:42.485Z,5.73
2023-02-13T03:20:13.771Z,5.73
2023-02-13T03:21:45.387Z,5.64
2023-02-13T03:23:16.667Z,5.42
2023-02-13T03:24:47.967Z,5.48
2023-02-13T03:26:19.373Z,5.09
2023-02-13T03:27:50.660Z,4.82
2023-02-13T03:29:22.288Z,4.72
2023-02-13T03:30:53.759Z,4.26
2023-02-13T03:32:25.093Z,4.19
2023-02-13T03:33:56.481Z,4.23
2023-02-13T03:35:27.974Z,3.98
2023-02-13T03:36:59.331Z,3.85
2023-02-13T03:38:30.700Z,3.89
2023-02-13T03:40:02.242Z,4.20
2023-02-13T03:41:33.623Z,3.85
2023-02-13T03:43:05.004Z,3.98
2023-02-13T03:44:36.240Z,3.99
2023-02-13T03:46:07.514Z,3.94
2023-02-13T03:47:38.932Z,4.01
2023-02-13T03:49:10.208Z,3.95
2023-02-13T03:50:41.581Z,4.11
2023-02-13T03:52:12.824Z,3.87
2023-02-13T03:53:44.154Z,3.97
2023-02-13T03:55:15.564Z,4.07
2023-02-13T03:56:47.192Z,4.08
2023-02-13T03:58:18.615Z,3.95
2023-02-13T03:59:49.899Z,4.02
2023-02-13T04:01:21.615Z,4.09
2023-02-13T04:02:53.234Z,4.06
2023-02-13T04:04:24.734Z,4.51
2023-02-13T04:05:56.032Z,4.57
2023-02-13T04:07:27.415Z,4.59
2023-02-13T04:08:58.839Z,4.74
2023-02-13T04:10:30.338Z,4.47
2023-02-13T04:12:01.797Z,4.60
2023-02-13T04:13:33.087Z,4.54
2023-02-13T04:15:04.613Z,4.73
2023-02-13T04:16:35.988Z,4.94
2023-02-13T04:18:10.326Z,4.82
2023-02-13T04:19:41.941Z,4.75
2023-02-13T04:21:13.351Z,4.88
2023-02-13T04:22:44.885Z,4.68
2023-02-13T04:24:16.427Z,4.79
2023-02-13T04:25:48.030Z,4.94
2023-02-13T04:27:19.571Z,5.06
2023-02-13T04:28:51.103Z,5.21
2023-02-13T04:30:22.570Z,5.03
2023-02-13T04:31:54.100Z,4.80
2023-02-13T04:33:25.619Z,4.73
2023-02-13T04:34:57.048Z,5.21
2023-02-13T04:36:28.455Z,5.16
2023-02-13T04:37:59.745Z,5.49
2023-02-13T04:39:31.043Z,5.51
2023-02-13T04:41:02.791Z,5.18
2023-02-13T04:42:34.671Z,5.68
2023-02-13T04:44:06.191Z,5.51
2023-02-13T04:45:37.751Z,5.45
2023-02-13T04:47:09.237Z,5.87
2023-02-13T04:48:40.653Z,5.63
2023-02-13T04:50:12.076Z,5.86
2023-02-13T04:51:43.453Z,5.63
2023-02-13T04:53:14.764Z,5.40
2023-02-13T04:54:46.093Z,5.95
2023-02-13T04:56:19.627Z,5.86
2023-02-13T04:57:51.565Z,5.78
2023-02-13T04:59:23.213Z,5.70
2023-02-13T05:00:55.009Z,5.92
2023-02-13T05:02:26.536Z,5.74
2023-02-13T05:03:57.990Z,5.76
2023-02-13T05:05:29.477Z,6.00
2023-02-13T05:07:00.776Z,5.82
2023-02-13T05:08:32.250Z,5.78
2023-02-13T05:10:03.565Z,5.98
2023-02-13T05:11:34.833Z,6.04
2023-02-13T05:13:06.030Z,5.94
2023-02-13T05:14:37.391Z,5.81
2023-02-13T05:16:08.834Z,6.13
2023-02-13T05:17:40.179Z,5.90
2023-02-13T05:19:11.482Z,6.16
2023-02-13T05:20:42.774Z,6.37
2023-02-13T05:22:14.192Z,6.46
2023-02-13T05:23:45.827Z,6.33
2023-02-13T05:25:17.388Z,5.98
2023-02-13T05:26:48.834Z,5.85
2023-02-13T05:28:20.223Z,6.04
2023-02-13T05:29:51.809Z,6.16
2023-02-13T05:31:23.245Z,6.20
2023-02-13T05:32:54.914Z,6.65
2023-02-13T05:34:27.016Z,6.24
2023-02-13T05:35:58.308Z,6.27
2023-02-13T05:37:29.612Z,6.42
2023-02-13T05:39:01.326Z,6.49
2023-02-13T05:40:32.614Z,6.61
2023-02-13T05:42:03.946Z,6.48
2023-02-13T05:43:35.287Z,6.62
2023-02-13T05:45:06.614Z,6.82
2023-02-13T05:46:39.190Z,7.42
2023-02-13T05:48:11.121Z,6.68
2023-02-13T05:49:42.411Z,6.52
2023-02-13T05:51:13.962Z,7.26
2023-02-13T05:52:45.265Z,6.88
2023-02-13T05:54:16.704Z,7.55
2023-02-13T05:55:48.082Z,7.85
2023-02-13T05:57:19.998Z,7.97
2023-02-13T05:58:51.550Z,7.45
2023-02-13T06:00:22.892Z,7.07
2023-02-13T06:01:54.257Z,7.31
2023-02-13T06:03:25.797Z,6.80
2023-02-13T06:05:30.323Z,6.84
2023-02-13T06:07:01.925Z,7.16
2023-02-13T06:08:33.209Z,7.55
2023-02-13T06:10:10.089Z,8.34
2023-02-13T06:11:41.956Z,7.53
2023-02-13T06:13:13.706Z,7.65
2023-02-13T06:14:45.073Z,7.85
2023-02-13T06:16:17.552Z,7.39
2023-02-13T06:17:49.078Z,7.53
2023-02-13T06:19:20.463Z,7.43
2023-02-13T06:20:51.868Z,7.27
2023-02-13T06:22:23.755Z,7.29
2023-02-13T06:23:55.269Z,7.10
2023-02-13T06:25:26.599Z,6.89
2023-02-13T06:26:59.068Z,6.73
2023-02-13T06:28:30.943Z,6.56
2023-02-13T06:30:02.646Z,7.21
2023-02-13T06:31:38.319Z,7.12
2023-02-13T06:33:10.121Z,7.04
2023-02-13T06:34:41.933Z,7.55
2023-02-13T06:36:14.455Z,7.72
2023-02-13T06:37:46.154Z,7.66
2023-02-13T06:39:22.484Z,7.94
2023-02-13T06:40:54.131Z,8.05
2023-02-13T06:42:25.485Z,8.56
2023-02-13T06:43:56.901Z,9.43
2023-02-13T06:45:28.179Z,9.87
2023-02-13T06:46:59.644Z,9.43
2023-02-13T06:48:31.088Z,9.16
2023-02-13T06:50:07.491Z,8.28
2023-02-13T06:51:38.794Z,8.48
2023-02-13T06:53:10.072Z,8.95
2023-02-13T06:54:47.803Z,8.66
2023-02-13T06:56:19.402Z,10.36
2023-02-13T06:57:50.721Z,10.71
2023-02-13T06:59:21.990Z,8.63
2023-02-13T07:00:53.441Z,9.99
2023-02-13T07:02:24.950Z,11.32
2023-02-13T07:03:56.704Z,10.16
2023-02-13T07:05:28.300Z,10.28
2023-02-13T07:06:59.755Z,9.99
2023-02-13T07:08:31.459Z,9.94
2023-02-13T07:10:03.881Z,9.36
2023-02-13T07:11:35.738Z,10.66
2023-02-13T07:13:07.050Z,9.34
2023-02-13T07:14:38.409Z,8.97
2023-02-13T07:16:09.735Z,9.04
2023-02-13T07:17:41.659Z,8.39
2023-02-13T07:19:13.118Z,8.50
2023-02-13T07:20:44.577Z,8.49
2023-02-13T07:22:15.819Z,8.32
2023-02-13T07:23:47.112Z,8.08
2023-02-13T07:25:18.398Z,8.50
2023-02-13T07:26:49.681Z,8.25
2023-02-13T07:28:20.981Z,8.46
2023-02-13T07:29:52.455Z,8.06
2023-02-13T07:31:23.969Z,8.20
2023-02-13T07:32:55.501Z,8.30
2023-02-13T07:34:27.125Z,7.90
2023-02-13T07:35:58.753Z,7.86
2023-02-13T07:37:30.084Z,8.11
2023-02-13T07:39:01.379Z,8.49
2023-02-13T07:40:32.634Z,8.46
2023-02-13T07:42:03.973Z,8.41
2023-02-13T07:43:40.570Z,8.14
2023-02-13T07:45:11.896Z,8.04
2023-02-13T07:46:43.431Z,8.20
2023-02-13T07:48:14.972Z,8.27
2023-02-13T07:49:47.447Z,8.10
2023-02-13T07:51:18.918Z,8.30
2023-02-13T07:52:50.413Z,8.52
2023-02-13T07:54:21.684Z,8.33
2023-02-13T07:55:53.056Z,7.93
2023-02-13T07:57:29.478Z,8.22
2023-02-13T07:59:01.031Z,7.91
2023-02-13T08:00:32.506Z,7.76
2023-02-13T08:02:04.328Z,8.04
2023-02-13T08:03:35.717Z,7.88
2023-02-13T08:05:07.041Z,7.75
2023-02-13T08:06:38.454Z,7.89
2023-02-13T08:08:09.730Z,8.22
2023-02-13T08:09:41.569Z,7.96
2023-02-13T08:11:12.814Z,8.23
2023-02-13T08:12:44.360Z,8.01
2023-02-13T08:14:15.897Z,7.87
2023-02-13T08:15:47.325Z,7.91
2023-02-13T08:17:18.752Z,8.00
2023-02-13T08:18:50.239Z,7.76
2023-02-13T08:20:23.399Z,7.92
2023-02-13T08:21:55.308Z,8.06
2023-02-13T08:23:26.679Z,8.07
2023-02-13T08:24:58.071Z,7.93
2023-02-13T08:26:29.508Z,7.99
2023-02-13T08:28:00.836Z,7.64
2023-02-13T08:29:32.377Z,7.88
2023-02-13T08:31:03.877Z,7.80
2023-02-13T08:32:42.062Z,8.30
2023-02-13T08:34:23.405Z,7.99
2023-02-13T08:35:55.080Z,8.24
2023-02-13T08:37:26.481Z,8.81
2023-02-13T08:39:03.734Z,9.41
2023-02-13T08:40:35.276Z,8.44
2023-02-13T08:42:06.516Z,8.52
2023-02-13T08:43:38.207Z,8.42
2023-02-13T08:45:09.573Z,8.38
2023-02-13T08:46:41.097Z,8.15
2023-02-13T08:48:12.737Z,8.20
2023-02-13T08:49:44.199Z,8.25
2023-02-13T08:51:15.666Z,8.29
2023-02-13T08:52:47.081Z,8.29
2023-02-13T08:54:18.517Z,8.18
2023-02-13T08:55:50.179Z,7.87
2023-02-13T08:57:21.744Z,8.15
2023-02-13T08:58:53.339Z,8.10
2023-02-13T09:00:24.736Z,8.51
2023-02-13T09:01:56.110Z,8.03
2023-02-13T09:03:27.638Z,7.90
2023-02-13T09:04:59.142Z,7.66
2023-02-13T09:06:30.502Z,7.95
2023-02-13T09:08:06.935Z,8.22
2023-02-13T09:09:38.540Z,7.90
2023-02-13T09:11:10.286Z,8.20
2023-02-13T09:12:41.792Z,8.09
2023-02-13T09:14:13.783Z,8.45
2023-02-13T09:15:45.409Z,8.14
2023-02-13T09:17:16.827Z,8.53
2023-02-13T09:18:48.589Z,8.41
2023-02-13T09:20:20.441Z,8.28
2023-02-13T09:21:51.822Z,7.96
2023-02-13T09:23:23.462Z,8.10
2023-02-13T09:24:55.285Z,8.01
2023-02-13T09:26:26.928Z,8.17
2023-02-13T09:28:03.297Z,7.89
2023-02-13T09:29:34.697Z,8.13
2023-02-13T09:31:06.267Z,8.26
2023-02-13T09:32:37.818Z,8.11
2023-02-13T09:34:09.204Z,8.22
2023-02-13T09:35:40.776Z,7.91
2023-02-13T09:37:13.415Z,8.29
2023-02-13T09:38:45.057Z,8.09
2023-02-13T09:40:16.652Z,8.23
2023-02-13T09:41:48.109Z,7.86
2023-02-13T09:43:19.613Z,7.78
2023-02-13T09:44:51.058Z,7.77
2023-02-13T09:46:22.422Z,8.14
2023-02-13T09:47:53.921Z,7.80
2023-02-13T09:49:25.235Z,8.00
2023-02-13T09:50:56.643Z,8.03
2023-02-13T09:52:28.099Z,8.08
2023-02-13T09:53:59.590Z,8.20
2023-02-13T09:55:30.922Z,7.92
2023-02-13T09:57:02.346Z,8.16
2023-02-13T09:58:33.698Z,7.86
2023-02-13T10:00:05.122Z,7.92
2023-02-13T10:01:36.683Z,8.16
2023-02-13T10:03:08.181Z,8.37
2023-02-13T10:04:39.674Z,8.24
2023-02-13T10:06:11.159Z,8.15
2023-02-13T10:07:42.511Z,7.91
2023-02-13T10:09:13.824Z,7.99
2023-02-13T10:10:45.260Z,7.85
2023-02-13T10:12:16.765Z,8.13
2023-02-13T10:13:48.085Z,8.18
2023-02-13T10:15:19.396Z,7.66
2023-02-13T10:16:50.723Z,7.88
2023-02-13T10:18:22.397Z,8.05
2023-02-13T10:19:53.848Z,8.07
2023-02-13T10:21:25.118Z,8.34
2023-02-13T10:22:56.445Z,8.17
2023-02-13T10:24:28.285Z,8.07
2023-02-13T10:26:02.040Z,7.90
2023-02-13T10:27:33.553Z,7.87
2023-02-13T10:29:04.986Z,8.05
2023-02-13T10:30:36.432Z,8.20
2023-02-13T10:32:07.879Z,8.10
2023-02-13T10:33:39.384Z,8.38
2023-02-13T10:35:10.843Z,8.15
2023-02-13T10:36:42.193Z,7.82
2023-02-13T10:38:13.468Z,8.16
2023-02-13T10:39:44.864Z,7.77
2023-02-13T10:41:16.275Z,7.72
2023-02-13T10:42:47.686Z,7.38
2023-02-13T10:44:19.312Z,7.27
2023-02-13T10:45:50.740Z,7.79
2023-02-13T10:47:22.253Z,7.59
2023-02-13T10:48:53.617Z,7.92
2023-02-13T10:50:25.072Z,8.33
2023-02-13T10:51:56.731Z,7.40
2023-02-13T10:53:28.278Z,7.46
2023-02-13T10:55:01.619Z,7.65
2023-02-13T10:56:33.993Z,7.52
2023-02-13T10:58:06.190Z,7.31
2023-02-13T10:59:38.037Z,7.04
2023-02-13T11:01:09.492Z,7.14
2023-02-13T11:02:40.945Z,6.68
2023-02-13T11:04:17.627Z,7.09
2023-02-13T11:06:19.594Z,6.77
2023-02-13T11:09:09.277Z,7.02
2023-02-13T11:10:41.692Z,6.72
2023-02-13T11:12:24.563Z,7.30
2023-02-13T11:13:55.975Z,6.91
2023-02-13T11:15:27.490Z,6.82
2023-02-13T11:16:59.252Z,6.84
2023-02-13T11:18:30.849Z,7.29
2023-02-13T11:20:02.582Z,6.88
2023-02-13T11:21:34.066Z,6.67
2023-02-13T11:23:05.434Z,6.56
2023-02-13T11:24:36.981Z,6.93
2023-02-13T11:26:08.458Z,6.59
2023-02-13T11:27:39.923Z,7.02
2023-02-13T11:29:11.525Z,6.76
2023-02-13T11:30:42.949Z,6.52
2023-02-13T11:32:14.631Z,6.76
2023-02-13T11:33:46.537Z,6.89
2023-02-13T11:35:21.297Z,6.48
2023-02-13T11:36:52.903Z,6.65
2023-02-13T11:38:24.335Z,6.78
2023-02-13T11:39:56.096Z,6.66
2023-02-13T11:41:27.499Z,6.44
2023-02-13T11:42:59.877Z,7.00
2023-02-13T11:44:31.356Z,6.69
2023-02-13T11:46:02.950Z,6.54
2023-02-13T11:47:34.431Z,6.39
2023-02-13T11:49:11.068Z,6.27
2023-02-13T11:50:42.684Z,6.17
2023-02-13T11:52:14.209Z,6.08
2023-02-13T11:53:45.740Z,6.22
2023-02-13T11:55:18.050Z,6.20
2023-02-13T11:57:04.004Z,6.48
2023-02-13T11:58:36.509Z,6.40
2023-02-13T12:00:08.130Z,6.53
2023-02-13T12:01:39.706Z,6.36
2023-02-13T12:03:11.443Z,6.16
2023-02-13T12:04:43.118Z,6.26
2023-02-13T12:06:14.522Z,6.14
2023-02-13T12:07:46.467Z,6.36
2023-02-13T12:09:18.171Z,6.05
2023-02-13T12:10:49.603Z,6.34
2023-02-13T12:12:24.686Z,6.14
2023-02-13T12:13:56.220Z,6.32
2023-02-13T12:15:29.718Z,6.10
2023-02-13T12:17:02.284Z,6.05
2023-02-13T12:18:41.458Z,5.87
2023-02-13T12:20:13.228Z,5.98
2023-02-13T12:21:45.097Z,6.01
2023-02-13T12:23:16.798Z,5.89
2023-02-13T12:24:53.279Z,6.13
2023-02-13T12:26:24.672Z,5.78
2023-02-13T12:27:56.106Z,5.77
2023-02-13T12:29:27.848Z,5.73
2023-02-13T12:30:59.773Z,5.61
2023-02-13T12:32:31.518Z,5.35
2023-02-13T12:34:02.928Z,5.65
2023-02-13T12:35:34.312Z,5.66
2023-02-13T12:37:05.943Z,5.92
2023-02-13T12:38:37.526Z,5.85
2023-02-13T12:40:19.108Z,5.88
2023-02-13T12:41:50.824Z,5.55
2023-02-13T12:43:22.681Z,5.25
2023-02-13T12:44:54.244Z,5.19
2023-02-13T12:46:25.797Z,5.73
2023-02-13T12:47:57.561Z,5.41
2023-02-13T12:49:29.008Z,5.48
2023-02-13T12:51:00.690Z,5.38
2023-02-13T12:52:32.128Z,5.46
2023-02-13T12:54:35.370Z,5.59
2023-02-13T12:56:16.903Z,5.55
2023-02-13T12:57:48.423Z,5.62
2023-02-13T12:59:19.912Z,5.62
2023-02-13T13:00:52.170Z,5.68
2023-02-13T13:02:23.707Z,5.71
2023-02-13T13:03:55.274Z,5.46
2023-02-13T13:05:26.717Z,5.37
2023-02-13T13:06:58.211Z,5.54
2023-02-13T13:08:29.778Z,5.40
2023-02-13T13:10:01.265Z,5.23
2023-02-13T13:11:32.744Z,5.38
2023-02-13T13:13:04.189Z,5.38
2023-02-13T13:14:45.826Z,5.58
2023-02-13T13:16:17.491Z,5.05
2023-02-13T13:17:49.413Z,5.45
2023-02-13T13:19:21.374Z,5.31
2023-02-13T13:20:53.119Z,5.15
2023-02-13T13:22:24.772Z,5.12
2023-02-13T13:23:56.319Z,5.36
2023-02-13T13:25:27.860Z,5.02
2023-02-13T13:26:59.333Z,5.01
2023-02-13T13:28:30.929Z,5.06
2023-02-13T13:30:02.588Z,4.87
2023-02-13T13:31:35.697Z,4.59
2023-02-13T13:33:08.165Z,5.33
2023-02-13T13:35:09.683Z,5.14
2023-02-13T13:36:54.805Z,4.82
2023-02-13T13:38:26.223Z,4.99
2023-02-13T13:39:57.687Z,4.97
2023-02-13T13:41:34.418Z,5.09
2023-02-13T13:43:06.298Z,4.94
2023-02-13T13:44:37.996Z,4.83
2023-02-13T13:46:09.421Z,4.85
2023-02-13T13:47:40.864Z,4.83
2023-02-13T13:49:12.420Z,4.74
2023-02-13T13:50:43.882Z,5.00
2023-02-13T13:52:15.384Z,5.22
2023-02-13T13:53:47.123Z,4.92
2023-02-13T13:55:18.598Z,4.66
2023-02-13T13:56:50.009Z,5.05
2023-02-13T13:58:21.776Z,5.10
2023-02-13T13:59:53.213Z,4.99
2023-02-13T14:01:24.815Z,4.90
2023-02-13T14:03:01.348Z,4.83
2023-02-13T14:04:32.921Z,5.13
2023-02-13T14:06:04.266Z,5.22
2023-02-13T14:07:36.734Z,5.24
2023-02-13T14:09:08.124Z,5.12
2023-02-13T14:10:39.519Z,5.04
2023-02-13T14:12:10.930Z,5.14
2023-02-13T14:13:42.329Z,5.18
2023-02-13T14:15:13.720Z,5.41
2023-02-13T14:16:45.278Z,5.39
2023-02-13T14:18:16.667Z,5.14
2023-02-13T14:19:48.220Z,5.29
2023-02-13T14:21:19.631Z,5.40
2023-02-13T14:22:51.072Z,5.23
2023-02-13T14:24:22.470Z,5.34
2023-02-13T14:25:54.677Z,5.37
2023-02-13T14:27:26.067Z,5.12
2023-02-13T14:28:57.446Z,5.49
2023-02-13T14:30:29.206Z,5.02
2023-02-13T14:32:00.763Z,5.08
2023-02-13T14:33:32.386Z,4.76
2023-02-13T14:35:03.864Z,4.85
2023-02-13T14:36:35.463Z,4.97
2023-02-13T14:38:07.092Z,5.20
2023-02-13T14:39:38.498Z,5.47
2023-02-13T14:41:09.827Z,5.01
2023-02-13T14:42:41.411Z,5.09
2023-02-13T14:44:12.998Z,5.29
2023-02-13T14:45:44.686Z,5.44
2023-02-13T14:47:16.095Z,5.17
2023-02-13T14:48:47.455Z,4.87
2023-02-13T14:50:19.149Z,5.05
2023-02-13T14:51:50.728Z,5.24
2023-02-13T14:53:22.115Z,4.96
2023-02-13T14:54:53.765Z,5.09
2023-02-13T14:56:25.406Z,4.95
2023-02-13T14:57:56.856Z,5.02
2023-02-13T14:59:28.237Z,5.34
2023-02-13T15:01:00.305Z,5.04
2023-02-13T15:02:31.839Z,5.24
2023-02-13T15:04:03.229Z,5.10
2023-02-13T15:05:34.910Z,4.95
2023-02-13T15:07:06.498Z,5.02
2023-02-13T15:08:38.022Z,4.74
2023-02-13T15:10:09.356Z,4.89
2023-02-13T15:11:40.660Z,5.05
2023-02-13T15:13:35.280Z,5.26
2023-02-13T15:15:06.790Z,5.03
2023-02-13T15:16:38.756Z,4.87
2023-02-13T15:18:10.323Z,4.95
2023-02-13T15:19:41.826Z,4.92
2023-02-13T15:21:13.187Z,4.93
2023-02-13T15:22:44.622Z,4.90
2023-02-13T15:24:16.200Z,5.04
2023-02-13T15:25:47.849Z,4.76
2023-02-13T15:27:20.405Z,5.12
2023-02-13T15:28:51.781Z,5.27
2023-02-13T15:30:23.304Z,4.83
2023-02-13T15:31:54.957Z,4.94
2023-02-13T15:33:26.402Z,5.06
2023-02-13T15:35:07.696Z,5.16
2023-02-13T15:36:39.154Z,5.15
2023-02-13T15:38:10.589Z,5.23
2023-02-13T15:39:42.306Z,5.12
2023-02-13T15:41:13.773Z,5.37
2023-02-13T15:42:45.153Z,5.20
2023-02-13T15:44:17.719Z,5.04
2023-02-13T15:45:49.135Z,5.09
2023-02-13T15:47:20.514Z,5.28
2023-02-13T15:48:52.025Z,5.16
2023-02-13T15:50:23.425Z,5.14
2023-02-13T15:51:55.056Z,4.98
2023-02-13T15:53:26.686Z,5.01
2023-02-13T15:54:58.228Z,5.10
2023-02-13T15:56:30.086Z,5.14
2023-02-13T15:58:01.990Z,5.18
2023-02-13T15:59:33.733Z,5.16
2023-02-13T16:01:05.177Z,5.09
2023-02-13T16:02:36.655Z,5.95
2023-02-13T16:04:08.489Z,6.30
2023-02-13T16:05:41.250Z,5.58
2023-02-13T16:07:13.046Z,5.14
2023-02-13T16:08:44.393Z,5.46
2023-02-13T16:10:15.997Z,5.33
2023-02-13T16:11:47.448Z,5.60
2023-02-13T16:13:19.239Z,5.52
2023-02-13T16:14:50.766Z,5.43
2023-02-13T16:16:22.214Z,5.27
2023-02-13T16:17:53.772Z,5.26
2023-02-13T16:19:25.387Z,5.58
2023-02-13T16:20:57.205Z,5.35
2023-02-13T16:22:29.133Z,5.63
2023-02-13T16:24:01.534Z,5.69
2023-02-13T16:25:33.171Z,5.57
2023-02-13T16:27:05.038Z,5.75
2023-02-13T16:28:36.813Z,5.63
2023-02-13T16:30:08.536Z,5.68
2023-02-13T16:31:40.296Z,5.68
2023-02-13T16:33:11.930Z,5.88
2023-02-13T16:34:53.316Z,5.83
2023-02-13T16:36:24.837Z,6.20
2023-02-13T16:37:56.340Z,6.03
2023-02-13T16:39:27.804Z,6.12
2023-02-13T16:40:59.623Z,5.81
2023-02-13T16:42:31.373Z,5.80
2023-02-13T16:44:02.802Z,5.91
2023-02-13T16:45:34.230Z,5.62
2023-02-13T16:47:05.583Z,5.81
2023-02-13T16:48:37.153Z,5.75
2023-02-13T16:50:08.489Z,5.80
2023-02-13T16:51:39.958Z,5.92
2023-02-13T16:53:11.321Z,6.19
2023-02-13T16:54:42.712Z,5.69
2023-02-13T16:56:14.084Z,5.94
2023-02-13T16:57:45.631Z,5.81
2023-02-13T16:59:40.387Z,5.88
2023-02-13T17:01:17.164Z,5.76
2023-02-13T17:02:48.625Z,5.79
2023-02-13T17:04:20.082Z,5.86
2023-02-13T17:05:51.531Z,6.01
2023-02-13T17:07:22.851Z,6.04
2023-02-13T17:08:59.528Z,6.24
2023-02-13T17:10:30.839Z,6.38
2023-02-13T17:12:12.158Z,6.51
2023-02-13T17:13:43.805Z,6.36
2023-02-13T17:15:15.153Z,6.84
2023-02-13T17:16:47.664Z,6.72
2023-02-13T17:18:36.601Z,6.90
2023-02-13T17:20:12.315Z,7.62
2023-02-13T17:22:12.700Z,7.55
2023-02-13T17:23:44.277Z,6.70
2023-02-13T17:25:16.154Z,6.67
2023-02-13T17:26:48.007Z,6.60
2023-02-13T17:28:19.530Z,6.67
2023-02-13T17:29:51.024Z,6.71
2023-02-13T17:31:22.511Z,6.94
2023-02-13T17:32:53.922Z,6.99
2023-02-13T17:34:25.660Z,7.37
2023-02-13T17:35:57.123Z,7.10
2023-02-13T17:37:28.639Z,7.15
2023-02-13T17:38:59.910Z,7.20
2023-02-13T17:40:31.474Z,7.18
2023-02-13T17:42:02.772Z,7.31
2023-02-13T17:43:34.328Z,7.21
2023-02-13T17:45:05.734Z,7.06
2023-02-13T17:46:38.326Z,7.28
2023-02-13T17:48:10.066Z,7.10
2023-02-13T17:49:41.794Z,7.05
2023-02-13T17:51:13.144Z,7.37
2023-02-13T17:52:44.476Z,7.55
2023-02-13T17:54:16.135Z,7.73
2023-02-13T17:55:47.433Z,8.36
2023-02-13T17:57:19.184Z,9.31
2023-02-13T17:59:00.604Z,10.46
2023-02-13T18:02:44.079Z,10.92
2023-02-13T18:04:15.606Z,9.55
2023-02-13T18:05:47.230Z,8.16
2023-02-13T18:07:18.639Z,7.85
2023-02-13T18:08:50.385Z,7.95
2023-02-13T18:10:21.691Z,7.88
2023-02-13T18:12:17.360Z,7.76
2023-02-13T18:13:49.046Z,7.73
2023-02-13T18:15:20.942Z,7.38
2023-02-13T18:16:52.328Z,7.52
2023-02-13T18:18:28.678Z,7.62
2023-02-13T18:20:12.887Z,7.69
2023-02-13T18:21:44.461Z,7.81
2023-02-13T18:23:38.792Z,7.75
2023-02-13T18:25:27.626Z,8.10
2023-02-13T18:26:59.360Z,7.89
2023-02-13T18:28:50.717Z,8.11
2023-02-13T18:30:22.135Z,8.41
2023-02-13T18:32:03.522Z,8.48
2023-02-13T18:33:44.027Z,8.11
2023-02-13T18:35:15.442Z,8.21
2023-02-13T18:36:46.939Z,7.94
2023-02-13T18:38:18.317Z,8.48
2023-02-13T18:40:16.558Z,8.42
2023-02-13T18:41:59.200Z,8.26
2023-02-13T18:43:41.334Z,9.53
2023-02-13T18:45:12.831Z,9.79
2023-02-13T18:46:54.443Z,9.48
2023-02-13T18:48:31.265Z,9.11
2023-02-13T18:50:02.696Z,10.13
2023-02-13T18:51:40.043Z,14.44
2023-02-13T18:53:30.295Z,15.46
2023-02-13T18:55:03.170Z,14.00
2023-02-13T18:56:34.648Z,12.27
2023-02-13T18:58:10.443Z,10.97
2023-02-13T18:59:43.236Z,11.15
2023-02-13T19:01:15.960Z,10.51
2023-02-13T19:02:59.032Z,11.22
2023-02-13T19:04:35.741Z,11.00
2023-02-13T19:06:16.294Z,10.91
2023-02-13T19:07:48.084Z,10.39
2023-02-13T19:10:04.031Z,11.98
2023-02-13T19:12:01.597Z,12.42
2023-02-13T19:13:34.069Z,11.51
2023-02-13T19:15:15.843Z,11.71
2023-02-13T19:17:04.246Z,11.02
2023-02-13T19:18:40.896Z,10.67
2023-02-13T19:20:17.276Z,10.47
2023-02-13T19:22:19.822Z,10.87
2023-02-13T19:23:52.363Z,11.09
2023-02-13T19:25:24.156Z,10.87
2023-02-13T19:26:56.070Z,10.57
2023-02-13T19:28:27.517Z,11.19
2023-02-13T19:30:00.801Z,11.03
2023-02-13T19:31:32.894Z,10.82
2023-02-13T19:35:01.168Z,11.34
2023-02-13T19:36:38.621Z,12.34
2023-02-13T19:38:10.522Z,12.11
2023-02-13T19:39:42.462Z,11.57
2023-02-13T19:41:32.284Z,10.89
2023-02-13T19:43:03.918Z,11.18
2023-02-13T19:44:48.180Z,10.79
2023-02-13T19:46:42.661Z,10.50
2023-02-13T19:48:37.253Z,10.62
2023-02-13T19:50:09.087Z,10.65
2023-02-13T19:51:59.549Z,10.64
2023-02-13T19:53:38.757Z,10.51
2023-02-13T19:55:15.260Z,10.56
2023-02-13T19:57:23.525Z,11.07
2023-02-13T19:58:54.853Z,10.95
2023-02-13T20:00:31.566Z,10.43
2023-02-13T20:04:22.206Z,11.04
2023-02-13T20:06:01.101Z,10.85
2023-02-13T20:07:32.676Z,10.92
2023-02-13T20:09:12.856Z,11.03
2023-02-13T20:10:44.580Z,10.83
2023-02-13T20:12:16.187Z,10.77
2023-02-13T20:13:49.343Z,10.85
2023-02-13T20:15:29.900Z,10.93
2023-02-13T20:17:08.478Z,10.62
2023-02-13T20:18:40.071Z,10.70
2023-02-13T20:20:11.430Z,10.59
2023-02-13T20:21:49.293Z,10.80
2023-02-13T20:23:34.014Z,10.57
2023-02-13T20:25:06.096Z,10.84
2023-02-13T20:26:38.354Z,11.01
2023-02-13T20:28:09.801Z,10.90
2023-02-13T20:29:42.424Z,11.09
2023-02-13T20:31:21.498Z,11.07
2023-02-13T20:33:01.738Z,11.60
2023-02-13T20:34:44.161Z,11.20
2023-02-13T20:36:35.050Z,10.95